Flight Track Log - Related Links

Times and Time Zones

All times are in EDT time to prevent confusion due to time zone crossing. See the SWA167 flight status page for this flight to view local times or setup timezone preferences in your user account.

Time Position Orientation Groundspeed Altitude Reporting Facility
EDT Latitude Longitude Course Direction KTS MPH feet Rate Location/Type
Tue 07:55:41 PM 38.7833 -90.4333 197° South 205 236 3,600  Level Gateway (St. Louis) TRACON
Tue 07:56:58 PM 38.7469 -90.5192 241° Southwest 263 303 7,500 3,367 Climbing Kansas City Center
Tue 07:58:00 PM 38.6700 -90.5556 200° South 296 341 11,400 3,823 Climbing Kansas City Center
Tue 07:59:02 PM 38.5650 -90.6006 199° South 344 396 15,400 3,659 Climbing Kansas City Center
Tue 08:00:00 PM 38.2515 -90.6818 218° Southwest  Level FlightAware Approximate
Tue 08:00:03 PM 38.4658 -90.6447 199° South 367 422 18,900  Level Kansas City Center
Tue 08:01:00 PM 38.1584 -90.7700 197° South  Level FlightAware Approximate
Tue 08:01:05 PM 38.3594 -90.6917 199° South 384 442 22,500  Level Kansas City Center
Tue 08:02:07 PM 38.2539 -90.7381 199° South 397 457 25,200 2,537 Climbing Kansas City Center
Tue 08:03:08 PM 38.1450 -90.7847 199° South 407 468 27,700 2,341 Climbing Kansas City Center
Tue 08:04:10 PM 38.0336 -90.8342 199° South 416 479 30,000 2,829 Climbing Kansas City Center
Tue 08:05:11 PM 37.8989 -90.8919 199° South 423 487 33,500 2,927 Climbing Kansas City Center
Tue 08:06:13 PM 37.7947 -90.9347 198° South 411 473 36,000 1,935 Climbing Kansas City Center
Tue 08:07:15 PM 37.6903 -90.9772 198° South 400 460 37,500 1,317 Climbing Kansas City Center
Tue 08:08:16 PM 37.5819 -91.0214 198° South 398 458 38,700 1,073 Climbing Kansas City Center
Tue 08:09:18 PM 37.4717 -91.0681 199° South 407 468 39,700 629 Climbing Kansas City Center
Tue 08:10:20 PM 37.3611 -91.1142 198° South 414 476 40,000 146 Climbing Kansas City Center
Tue 08:11:21 PM 37.2508 -91.1594 198° South 415 478 40,000  Level Kansas City Center
Tue 08:12:23 PM 37.1406 -91.2056 198° South 415 478 40,000  Level Kansas City Center
Tue 08:13:24 PM 37.0303 -91.2494 198° South 415 478 40,000  Level Kansas City Center
Tue 08:14:26 PM 36.9008 -91.3025 198° South 409 471 40,000  Level Kansas City Center
Tue 08:15:28 PM 36.7917 -91.3475 198° South 409 471 40,000  Level Kansas City Center
Tue 08:16:29 PM 36.6833 -91.3911 198° South 408 470 40,000  Level Kansas City Center
Tue 08:17:31 PM 36.5758 -91.4339 198° South 405 466 40,000  Level Kansas City Center
Tue 08:18:33 PM 36.4642 -91.4808 199° South 409 471 40,000  Level Kansas City Center
Tue 08:19:50 PM 36.3303 -91.5369 199° South 409 471 40,000  Level Memphis Center
Tue 08:20:50 PM 36.2214 -91.5789 197° South 409 471 40,000  Level Memphis Center
Tue 08:21:50 PM 36.1169 -91.6211 198° South 409 471 40,000  Level Memphis Center
Tue 08:22:50 PM 36.0081 -91.6631 197° South 409 471 40,000  Level Memphis Center
Tue 08:23:50 PM 35.9053 -91.7025 197° South 409 471 40,000  Level Memphis Center
Tue 08:24:50 PM 35.7944 -91.7467 198° South 404 465 40,000  Level Memphis Center
Tue 08:25:50 PM 35.6875 -91.7883 198° South 409 471 40,000  Level Memphis Center
Tue 08:26:50 PM 35.5806 -91.8325 199° South 414 476 40,000  Level Memphis Center
Tue 08:27:50 PM 35.4717 -91.8714 196° South 414 476 40,000  Level Memphis Center
Tue 08:28:50 PM 35.3628 -91.9128 197° South 408 470 40,000  Level Memphis Center
Tue 08:29:50 PM 35.2539 -91.9564 198° South 408 470 40,000  Level Memphis Center
Tue 08:30:50 PM 35.1469 -91.9975 197° South 408 470 40,000  Level Memphis Center
Tue 08:31:50 PM 35.0378 -92.0411 198° South 408 470 40,000  Level Memphis Center
Tue 08:32:50 PM 34.9328 -92.0822 198° South 408 470 40,000  Level Memphis Center
Tue 08:33:50 PM 34.8258 -92.1231 197° South 408 470 40,000  Level Memphis Center
Tue 08:34:50 PM 34.7189 -92.1661 198° South 408 470 40,000  Level Memphis Center
Tue 08:35:50 PM 34.6081 -92.1917 191° South 408 470 40,000  Level Memphis Center
Tue 08:36:50 PM 34.4969 -92.2144 190° South 402 463 40,000  Level Memphis Center
Tue 08:37:50 PM 34.3756 -92.2369 189° South 402 463 40,000  Level Memphis Center
Tue 08:38:50 PM 34.2625 -92.2597 189° South 412 474 40,000  Level Memphis Center
Tue 08:39:50 PM 34.1497 -92.2822 189° South 412 474 40,000  Level Memphis Center
Tue 08:40:50 PM 34.0533 -92.3025 190° South 412 474 40,000  Level Memphis Center
Tue 08:41:50 PM 33.9425 -92.3228 189° South 407 468 40,000  Level Memphis Center
Tue 08:42:50 PM 33.8336 -92.3403 188° South 407 468 40,000  Level Memphis Center
Tue 08:43:35 PM 33.7500 -92.3550 188° South 412 474 40,000  Level Fort Worth Center
Tue 08:44:35 PM 33.6300 -92.3769 189° South 412 474 40,000  Level Fort Worth Center
Tue 08:45:35 PM 33.5200 -92.3956 188° South 406 467 40,000  Level Fort Worth Center
Tue 08:46:35 PM 33.4083 -92.4169 189° South 406 467 40,000  Level Fort Worth Center
Tue 08:47:35 PM 33.2964 -92.4358 188° South 406 467 40,000  Level Fort Worth Center
Tue 08:48:35 PM 33.1867 -92.4567 189° South 406 467 40,000  Level Fort Worth Center
Tue 08:49:35 PM 33.0767 -92.4753 188° South 411 473 40,000  Level Fort Worth Center
Tue 08:50:35 PM 32.9689 -92.4961 189° South 411 473 40,000  Level Fort Worth Center
Tue 08:52:32 PM 32.7581 -92.5369 189° South 395 455 40,000  Level Houston Center
Tue 08:53:34 PM 32.6492 -92.5578 189° South 396 456 40,000  Level Houston Center
Tue 08:54:35 PM 32.5375 -92.5792 189° South 399 459 40,000  Level Houston Center
Tue 08:55:37 PM 32.4278 -92.5997 189° South 401 461 40,000  Level Houston Center
Tue 08:56:38 PM 32.3186 -92.6192 189° South 398 458 40,000  Level Houston Center
Tue 08:57:40 PM 32.2100 -92.6381 188° South 396 456 40,000  Level Houston Center
Tue 08:58:41 PM 32.0792 -92.6622 189° South 395 455 40,000  Level Houston Center
Tue 08:59:43 PM 31.9711 -92.6861 191° South 392 451 40,000  Level Houston Center
Tue 09:00:45 PM 31.8950 -92.7806 227° Southwest 389 448 40,000  Level Houston Center
Tue 09:01:46 PM 31.8200 -92.8742 227° Southwest 394 453 40,000  Level Houston Center
Tue 09:02:48 PM 31.7450 -92.9694 227° Southwest 396 456 40,000  Level Houston Center
Tue 09:03:49 PM 31.6697 -93.0653 227° Southwest 399 459 40,000  Level Houston Center
Tue 09:04:51 PM 31.5906 -93.1631 226° Southwest 403 464 40,000  Level Houston Center
Tue 09:05:52 PM 31.5167 -93.2567 227° Southwest 403 464 40,000  Level Houston Center
Tue 09:06:54 PM 31.4297 -93.3669 227° Southwest 400 460 40,000  Level Houston Center
Tue 09:07:55 PM 31.3536 -93.4622 227° Southwest 401 461 40,000  Level Houston Center
Tue 09:08:56 PM 31.2767 -93.5575 227° Southwest 404 465 40,000  Level Houston Center
Tue 09:09:58 PM 31.1972 -93.6569 227° Southwest 406 467 40,000  Level Houston Center
Tue 09:10:59 PM 31.1203 -93.7528 227° Southwest 406 467 40,000 -634 Level Houston Center
Tue 09:12:01 PM 31.0436 -93.8486 227° Southwest 408 470 38,700 -1,902 Descending Houston Center
Tue 09:13:02 PM 30.9672 -93.9428 227° Southwest 404 465 36,100 -3,197 Descending Houston Center
Tue 09:14:03 PM 30.8753 -94.0547 226° Southwest 402 463 32,200 -3,073 Descending Houston Center
Tue 09:15:05 PM 30.8006 -94.1458 226° Southwest 395 455 29,800 -2,146 Descending Houston Center
Tue 09:16:06 PM 30.7342 -94.2256 226° Southwest 381 438 27,800 -2,262 Descending Houston Center
Tue 09:17:07 PM 30.6556 -94.3225 227° Southwest 380 437 25,200 -2,439 Descending Houston Center
Tue 09:18:09 PM 30.5811 -94.4125 226° Southwest 387 445 22,800 -2,439 Descending Houston Center
Tue 09:19:10 PM 30.4994 -94.5117 226° Southwest 375 432 20,200 -2,356 Descending Houston Center
Tue 09:20:24 PM 30.4228 -94.6186 230° Southwest 352 405 17,500 -2,049 Descending Houston Center
Tue 09:21:13 PM 30.3683 -94.6669 217° Southwest 357 411 16,000 -1,964 Descending Houston Center
Tue 09:22:14 PM 30.2908 -94.7303 215° Southwest 344 396 13,900 -2,311 Descending Houston Center
Tue 09:23:15 PM 30.2497 -94.8319 245° Southwest 356 410 11,300 -1,756 Descending Houston Center
Tue 09:24:17 PM 30.2125 -94.9283 246° West 334 384 10,300 -634 Descending Houston Center
Tue 09:25:18 PM 30.1606 -95.0361 241° Southwest 324 373 10,000 -197 Descending Houston Center
Tue 09:26:19 PM 30.0867 -95.0919 213° Southwest 323 372 9,900 -390 Descending Houston Center
Tue 09:27:21 PM 30.0092 -95.1250 200° South 299 344 9,200 -927 Descending Houston Center
Tue 09:28:22 PM 29.9331 -95.1583 201° Southwest 292 336 8,000 -590 Descending Houston Center
Tue 09:29:23 PM 29.8564 -95.1911 200° South 295 339 8,000  Level Houston Center
Tue 09:30:24 PM 29.7803 -95.2242 201° Southwest 294 338 8,000 -439 Level Houston Center
Tue 09:31:26 PM 29.7033 -95.2344 187° South 280 322 7,100 -976 Descending Houston Center
Tue 09:32:27 PM 29.6117 -95.2378 182° South 282 325 6,000 -885 Descending Houston Center
Tue 09:33:28 PM 29.5517 -95.2622 200° South 251 289 5,300 -836 Descending Houston Center
Tue 09:34:29 PM 29.5089 -95.3106 225° Southwest 231 266 4,300 -878 Descending Houston Center
Tue 09:35:31 PM 29.5497 -95.3400 328° Northwest 189 217 3,500 -1,397 Descending Houston Center
Tue 09:36:25 PM 29.5958 -95.3394 North 166 191 1,600 -1,525 Descending Houston Center
Tue 09:37:33 PM 29.6239 -95.3019 49° Northeast 167 192 400 5,302 Descending Houston Center
Tue 09:38:34 PM 29.6567 -95.2667 43° Northeast 157 181 13,000 12,393 Climbing Houston Center

Login

Don't have an account? Register now (free) for customized features, flight alerts, and more!